Terminal Aerodrome Forecast
Issued by NWS

Home | Current Version | Previous Version | Text Only | Print | Product List | Glossary On
Versions: 1 2 3 4 5 6 7 8 9 10 11 12 13 14 15
000
FTUS44 KLIX 172057 AAA
TAFMCB
TAF AMD
KMCB 172057Z 1721/1818 00000KT 1/2SM FG VV002
     FM172200 23003KT 1 1/2SM BR OVC003
     FM180500 VRB03KT 1/2SM FG VCSH OVC003
     FM181600 07004KT 3/4SM SHRA BR OVC005 PROB30 1816/1818 TS BR
      OVC003CB=

USA.gov is the U.S. government's official web portal to all federal, state and local government web resources and services.